sensor_id;sensor_type;location;lat;lon;timestamp;P1;durP1;ratioP1;P2;durP2;ratioP2
48550;SDS011;34397;51.176;6.738;2022-09-03T00:00:11;3.60;;;1.63;;
48550;SDS011;34397;51.176;6.738;2022-09-03T00:02:47;3.17;;;1.70;;
48550;SDS011;34397;51.176;6.738;2022-09-03T00:05:25;4.68;;;1.70;;
48550;SDS011;34397;51.176;6.738;2022-09-03T00:08:09;2.92;;;1.60;;
48550;SDS011;34397;51.176;6.738;2022-09-03T00:10:52;3.45;;;1.88;;
48550;SDS011;34397;51.176;6.738;2022-09-03T00:13:31;2.70;;;1.80;;
48550;SDS011;34397;51.176;6.738;2022-09-03T00:16:11;3.75;;;1.85;;
48550;SDS011;34397;51.176;6.738;2022-09-03T00:18:49;2.45;;;1.60;;
48550;SDS011;34397;51.176;6.738;2022-09-03T00:21:33;5.05;;;1.70;;
48550;SDS011;34397;51.176;6.738;2022-09-03T00:24:12;3.70;;;1.48;;
48550;SDS011;34397;51.176;6.738;2022-09-03T00:26:49;4.13;;;1.70;;
48550;SDS011;34397;51.176;6.738;2022-09-03T00:29:28;3.05;;;1.70;;
48550;SDS011;34397;51.176;6.738;2022-09-03T00:32:10;4.57;;;1.55;;
48550;SDS011;34397;51.176;6.738;2022-09-03T00:34:48;3.25;;;1.70;;
48550;SDS011;34397;51.176;6.738;2022-09-03T00:37:25;3.35;;;1.63;;
48550;SDS011;34397;51.176;6.738;2022-09-03T00:39:59;4.68;;;1.80;;
48550;SDS011;34397;51.176;6.738;2022-09-03T00:42:36;4.00;;;1.80;;
48550;SDS011;34397;51.176;6.738;2022-09-03T00:45:17;2.97;;;1.50;;
48550;SDS011;34397;51.176;6.738;2022-09-03T00:48:09;3.15;;;1.55;;
48550;SDS011;34397;51.176;6.738;2022-09-03T00:50:56;3.75;;;1.70;;
48550;SDS011;34397;51.176;6.738;2022-09-03T00:53:43;2.95;;;1.70;;
48550;SDS011;34397;51.176;6.738;2022-09-03T00:56:26;3.65;;;1.70;;
48550;SDS011;34397;51.176;6.738;2022-09-03T00:59:13;3.67;;;1.65;;
48550;SDS011;34397;51.176;6.738;2022-09-03T01:02:00;3.95;;;1.70;;
48550;SDS011;34397;51.176;6.738;2022-09-03T01:04:47;3.67;;;1.70;;
48550;SDS011;34397;51.176;6.738;2022-09-03T01:07:31;3.22;;;1.63;;
48550;SDS011;34397;51.176;6.738;2022-09-03T01:10:15;4.03;;;1.50;;
48550;SDS011;34397;51.176;6.738;2022-09-03T01:13:03;2.45;;;1.50;;
48550;SDS011;34397;51.176;6.738;2022-09-03T01:15:43;3.28;;;1.70;;
48550;SDS011;34397;51.176;6.738;2022-09-03T01:18:27;2.75;;;1.40;;
48550;SDS011;34397;51.176;6.738;2022-09-03T01:21:12;4.77;;;1.67;;
48550;SDS011;34397;51.176;6.738;2022-09-03T01:27:19;3.22;;;1.70;;
48550;SDS011;34397;51.176;6.738;2022-09-03T01:30:04;2.42;;;1.35;;
48550;SDS011;34397;51.176;6.738;2022-09-03T01:32:40;3.17;;;1.60;;
48550;SDS011;34397;51.176;6.738;2022-09-03T01:35:26;3.95;;;1.60;;
48550;SDS011;34397;51.176;6.738;2022-09-03T01:38:08;3.63;;;1.70;;
48550;SDS011;34397;51.176;6.738;2022-09-03T01:40:53;3.53;;;1.60;;
48550;SDS011;34397;51.176;6.738;2022-09-03T01:43:55;2.88;;;1.50;;
48550;SDS011;34397;51.176;6.738;2022-09-03T01:46:36;2.65;;;1.40;;
48550;SDS011;34397;51.176;6.738;2022-09-03T01:49:17;3.28;;;1.50;;
48550;SDS011;34397;51.176;6.738;2022-09-03T01:51:57;4.35;;;1.52;;
48550;SDS011;34397;51.176;6.738;2022-09-03T01:54:37;2.80;;;1.42;;
48550;SDS011;34397;51.176;6.738;2022-09-03T01:57:34;2.95;;;1.40;;
48550;SDS011;34397;51.176;6.738;2022-09-03T02:00:16;3.08;;;1.60;;
48550;SDS011;34397;51.176;6.738;2022-09-03T02:02:51;2.63;;;1.50;;
48550;SDS011;34397;51.176;6.738;2022-09-03T02:05:24;2.30;;;1.40;;
48550;SDS011;34397;51.176;6.738;2022-09-03T02:08:01;2.92;;;1.50;;
48550;SDS011;34397;51.176;6.738;2022-09-03T02:10:37;4.30;;;1.73;;
48550;SDS011;34397;51.176;6.738;2022-09-03T02:13:17;4.57;;;2.00;;
48550;SDS011;34397;51.176;6.738;2022-09-03T02:15:52;4.00;;;1.73;;
48550;SDS011;34397;51.176;6.738;2022-09-03T02:18:30;2.33;;;1.42;;
48550;SDS011;34397;51.176;6.738;2022-09-03T02:21:07;2.47;;;1.50;;
48550;SDS011;34397;51.176;6.738;2022-09-03T02:23:40;2.22;;;1.38;;
48550;SDS011;34397;51.176;6.738;2022-09-03T02:26:14;3.58;;;1.65;;
48550;SDS011;34397;51.176;6.738;2022-09-03T02:28:52;2.22;;;1.40;;
48550;SDS011;34397;51.176;6.738;2022-09-03T02:31:26;4.20;;;1.55;;
48550;SDS011;34397;51.176;6.738;2022-09-03T02:33:59;5.93;;;1.92;;
48550;SDS011;34397;51.176;6.738;2022-09-03T02:36:31;2.25;;;1.45;;
48550;SDS011;34397;51.176;6.738;2022-09-03T02:39:06;3.13;;;1.70;;
48550;SDS011;34397;51.176;6.738;2022-09-03T02:41:38;3.10;;;1.75;;
48550;SDS011;34397;51.176;6.738;2022-09-03T02:44:11;2.67;;;1.53;;
48550;SDS011;34397;51.176;6.738;2022-09-03T02:46:54;2.80;;;1.75;;
48550;SDS011;34397;51.176;6.738;2022-09-03T02:49:33;2.60;;;1.60;;
48550;SDS011;34397;51.176;6.738;2022-09-03T02:52:06;2.45;;;1.30;;
48550;SDS011;34397;51.176;6.738;2022-09-03T02:54:41;3.45;;;1.60;;
48550;SDS011;34397;51.176;6.738;2022-09-03T02:57:15;2.45;;;1.55;;
48550;SDS011;34397;51.176;6.738;2022-09-03T03:02:19;2.35;;;1.55;;
48550;SDS011;34397;51.176;6.738;2022-09-03T03:04:52;2.80;;;1.40;;
48550;SDS011;34397;51.176;6.738;2022-09-03T03:07:25;2.55;;;1.40;;
48550;SDS011;34397;51.176;6.738;2022-09-03T03:09:58;3.75;;;1.60;;
48550;SDS011;34397;51.176;6.738;2022-09-03T03:12:30;3.15;;;1.40;;
48550;SDS011;34397;51.176;6.738;2022-09-03T03:15:02;4.60;;;1.53;;
48550;SDS011;34397;51.176;6.738;2022-09-03T03:17:35;4.85;;;1.67;;
48550;SDS011;34397;51.176;6.738;2022-09-03T03:20:09;2.42;;;1.45;;
48550;SDS011;34397;51.176;6.738;2022-09-03T03:22:41;3.53;;;1.70;;
48550;SDS011;34397;51.176;6.738;2022-09-03T03:25:13;3.72;;;1.67;;
48550;SDS011;34397;51.176;6.738;2022-09-03T03:27:45;2.80;;;1.70;;
48550;SDS011;34397;51.176;6.738;2022-09-03T03:30:17;3.22;;;1.63;;
48550;SDS011;34397;51.176;6.738;2022-09-03T03:32:51;4.60;;;1.40;;
48550;SDS011;34397;51.176;6.738;2022-09-03T03:35:25;3.60;;;1.50;;
48550;SDS011;34397;51.176;6.738;2022-09-03T03:37:57;4.20;;;1.50;;
48550;SDS011;34397;51.176;6.738;2022-09-03T03:40:29;3.20;;;1.40;;
48550;SDS011;34397;51.176;6.738;2022-09-03T03:43:02;2.70;;;1.42;;
48550;SDS011;34397;51.176;6.738;2022-09-03T03:45:34;3.08;;;1.55;;
48550;SDS011;34397;51.176;6.738;2022-09-03T03:48:06;2.72;;;1.55;;
48550;SDS011;34397;51.176;6.738;2022-09-03T03:50:39;2.38;;;1.52;;
48550;SDS011;34397;51.176;6.738;2022-09-03T03:53:11;3.72;;;1.40;;
48550;SDS011;34397;51.176;6.738;2022-09-03T03:55:48;3.78;;;1.55;;
48550;SDS011;34397;51.176;6.738;2022-09-03T03:58:26;2.17;;;1.30;;
48550;SDS011;34397;51.176;6.738;2022-09-03T04:01:03;2.50;;;1.40;;
48550;SDS011;34397;51.176;6.738;2022-09-03T04:03:36;4.25;;;1.60;;
48550;SDS011;34397;51.176;6.738;2022-09-03T04:06:10;3.03;;;1.77;;
48550;SDS011;34397;51.176;6.738;2022-09-03T04:08:45;2.60;;;1.50;;
48550;SDS011;34397;51.176;6.738;2022-09-03T04:11:20;2.53;;;1.30;;
48550;SDS011;34397;51.176;6.738;2022-09-03T04:13:53;2.15;;;1.50;;
48550;SDS011;34397;51.176;6.738;2022-09-03T04:16:25;2.45;;;1.30;;
48550;SDS011;34397;51.176;6.738;2022-09-03T04:21:31;2.72;;;1.60;;
48550;SDS011;34397;51.176;6.738;2022-09-03T04:24:04;2.78;;;1.30;;
48550;SDS011;34397;51.176;6.738;2022-09-03T04:26:38;2.40;;;1.50;;
48550;SDS011;34397;51.176;6.738;2022-09-03T04:29:12;2.33;;;1.30;;
48550;SDS011;34397;51.176;6.738;2022-09-03T04:31:44;2.93;;;1.60;;
48550;SDS011;34397;51.176;6.738;2022-09-03T04:34:30;3.97;;;1.42;;
48550;SDS011;34397;51.176;6.738;2022-09-03T04:37:04;5.13;;;1.63;;
48550;SDS011;34397;51.176;6.738;2022-09-03T04:39:38;2.42;;;1.52;;
48550;SDS011;34397;51.176;6.738;2022-09-03T04:42:13;3.38;;;1.50;;
48550;SDS011;34397;51.176;6.738;2022-09-03T04:44:48;2.63;;;1.50;;
48550;SDS011;34397;51.176;6.738;2022-09-03T04:47:20;2.50;;;1.27;;
48550;SDS011;34397;51.176;6.738;2022-09-03T04:49:54;4.13;;;1.60;;
48550;SDS011;34397;51.176;6.738;2022-09-03T04:52:28;4.10;;;1.60;;
48550;SDS011;34397;51.176;6.738;2022-09-03T04:55:03;3.17;;;1.33;;
48550;SDS011;34397;51.176;6.738;2022-09-03T04:57:40;3.45;;;1.50;;
48550;SDS011;34397;51.176;6.738;2022-09-03T05:00:13;2.85;;;1.60;;
48550;SDS011;34397;51.176;6.738;2022-09-03T05:02:48;3.33;;;1.33;;
48550;SDS011;34397;51.176;6.738;2022-09-03T05:05:21;2.77;;;1.53;;
48550;SDS011;34397;51.176;6.738;2022-09-03T05:07:58;3.85;;;1.30;;
48550;SDS011;34397;51.176;6.738;2022-09-03T05:10:31;2.45;;;1.25;;
48550;SDS011;34397;51.176;6.738;2022-09-03T05:13:04;3.78;;;1.70;;
48550;SDS011;34397;51.176;6.738;2022-09-03T05:15:36;2.60;;;1.40;;
48550;SDS011;34397;51.176;6.738;2022-09-03T05:18:09;2.45;;;1.40;;
48550;SDS011;34397;51.176;6.738;2022-09-03T05:20:44;3.72;;;1.48;;
48550;SDS011;34397;51.176;6.738;2022-09-03T05:23:17;10.70;;;1.90;;
48550;SDS011;34397;51.176;6.738;2022-09-03T05:25:53;5.28;;;1.45;;
48550;SDS011;34397;51.176;6.738;2022-09-03T05:28:28;8.07;;;1.55;;
48550;SDS011;34397;51.176;6.738;2022-09-03T05:31:07;3.08;;;1.60;;
48550;SDS011;34397;51.176;6.738;2022-09-03T05:33:42;2.42;;;1.48;;
48550;SDS011;34397;51.176;6.738;2022-09-03T05:36:21;3.10;;;1.40;;
48550;SDS011;34397;51.176;6.738;2022-09-03T05:38:58;2.83;;;1.20;;
48550;SDS011;34397;51.176;6.738;2022-09-03T05:41:30;2.72;;;1.58;;
48550;SDS011;34397;51.176;6.738;2022-09-03T05:44:03;2.72;;;1.23;;
48550;SDS011;34397;51.176;6.738;2022-09-03T05:46:35;2.85;;;1.50;;
48550;SDS011;34397;51.176;6.738;2022-09-03T05:49:12;3.35;;;1.50;;
48550;SDS011;34397;51.176;6.738;2022-09-03T05:51:44;2.53;;;1.30;;
48550;SDS011;34397;51.176;6.738;2022-09-03T05:54:20;5.45;;;1.75;;
48550;SDS011;34397;51.176;6.738;2022-09-03T05:56:55;3.75;;;1.63;;
48550;SDS011;34397;51.176;6.738;2022-09-03T05:59:27;3.25;;;1.65;;
48550;SDS011;34397;51.176;6.738;2022-09-03T06:02:10;2.25;;;1.35;;
48550;SDS011;34397;51.176;6.738;2022-09-03T06:04:42;3.27;;;1.53;;
48550;SDS011;34397;51.176;6.738;2022-09-03T06:07:17;3.42;;;1.67;;
48550;SDS011;34397;51.176;6.738;2022-09-03T06:09:54;3.25;;;1.70;;
48550;SDS011;34397;51.176;6.738;2022-09-03T06:12:28;4.15;;;1.88;;
48550;SDS011;34397;51.176;6.738;2022-09-03T06:15:06;2.47;;;1.50;;
48550;SDS011;34397;51.176;6.738;2022-09-03T06:17:43;2.78;;;1.50;;
48550;SDS011;34397;51.176;6.738;2022-09-03T06:20:18;2.88;;;1.60;;
48550;SDS011;34397;51.176;6.738;2022-09-03T06:22:50;2.88;;;1.70;;
48550;SDS011;34397;51.176;6.738;2022-09-03T06:25:26;3.00;;;1.45;;
48550;SDS011;34397;51.176;6.738;2022-09-03T06:27:58;3.42;;;1.50;;
48550;SDS011;34397;51.176;6.738;2022-09-03T06:30:31;2.63;;;1.55;;
48550;SDS011;34397;51.176;6.738;2022-09-03T06:33:08;2.38;;;1.40;;
48550;SDS011;34397;51.176;6.738;2022-09-03T06:35:43;1.70;;;1.20;;
48550;SDS011;34397;51.176;6.738;2022-09-03T06:38:16;2.97;;;1.20;;
48550;SDS011;34397;51.176;6.738;2022-09-03T06:40:52;3.95;;;1.40;;
48550;SDS011;34397;51.176;6.738;2022-09-03T06:43:25;3.53;;;1.45;;
48550;SDS011;34397;51.176;6.738;2022-09-03T06:46:07;2.85;;;1.50;;
48550;SDS011;34397;51.176;6.738;2022-09-03T06:48:42;3.13;;;1.52;;
48550;SDS011;34397;51.176;6.738;2022-09-03T06:51:18;3.42;;;1.50;;
48550;SDS011;34397;51.176;6.738;2022-09-03T06:54:01;3.30;;;1.40;;
48550;SDS011;34397;51.176;6.738;2022-09-03T06:56:39;2.58;;;1.50;;
48550;SDS011;34397;51.176;6.738;2022-09-03T06:59:18;3.70;;;1.58;;
48550;SDS011;34397;51.176;6.738;2022-09-03T07:01:58;4.00;;;1.58;;
48550;SDS011;34397;51.176;6.738;2022-09-03T07:04:33;5.97;;;1.48;;
48550;SDS011;34397;51.176;6.738;2022-09-03T07:07:05;3.50;;;1.67;;
48550;SDS011;34397;51.176;6.738;2022-09-03T07:09:43;7.60;;;1.63;;
48550;SDS011;34397;51.176;6.738;2022-09-03T07:12:16;3.40;;;1.80;;
48550;SDS011;34397;51.176;6.738;2022-09-03T07:14:52;4.53;;;1.80;;
48550;SDS011;34397;51.176;6.738;2022-09-03T07:17:29;5.30;;;1.90;;
48550;SDS011;34397;51.176;6.738;2022-09-03T07:20:01;4.22;;;1.60;;
48550;SDS011;34397;51.176;6.738;2022-09-03T07:22:40;3.40;;;1.50;;
48550;SDS011;34397;51.176;6.738;2022-09-03T07:25:12;5.13;;;1.73;;
48550;SDS011;34397;51.176;6.738;2022-09-03T07:27:45;3.15;;;1.52;;
48550;SDS011;34397;51.176;6.738;2022-09-03T07:30:22;4.47;;;2.10;;
48550;SDS011;34397;51.176;6.738;2022-09-03T07:33:00;3.88;;;1.67;;
48550;SDS011;34397;51.176;6.738;2022-09-03T07:35:35;4.78;;;1.80;;
48550;SDS011;34397;51.176;6.738;2022-09-03T07:38:16;4.25;;;2.20;;
48550;SDS011;34397;51.176;6.738;2022-09-03T07:40:57;6.78;;;2.33;;
48550;SDS011;34397;51.176;6.738;2022-09-03T07:43:35;4.88;;;2.08;;
48550;SDS011;34397;51.176;6.738;2022-09-03T07:46:12;3.10;;;1.90;;
48550;SDS011;34397;51.176;6.738;2022-09-03T07:48:53;4.25;;;2.13;;
48550;SDS011;34397;51.176;6.738;2022-09-03T07:51:35;8.02;;;1.90;;
48550;SDS011;34397;51.176;6.738;2022-09-03T07:54:10;4.45;;;1.90;;
48550;SDS011;34397;51.176;6.738;2022-09-03T07:56:47;5.95;;;1.85;;
48550;SDS011;34397;51.176;6.738;2022-09-03T07:59:20;4.15;;;2.10;;
48550;SDS011;34397;51.176;6.738;2022-09-03T08:01:55;3.70;;;1.70;;
48550;SDS011;34397;51.176;6.738;2022-09-03T08:04:27;5.97;;;1.95;;
48550;SDS011;34397;51.176;6.738;2022-09-03T08:07:05;6.30;;;2.25;;
48550;SDS011;34397;51.176;6.738;2022-09-03T08:09:37;4.27;;;1.70;;
48550;SDS011;34397;51.176;6.738;2022-09-03T08:12:10;4.97;;;1.90;;
48550;SDS011;34397;51.176;6.738;2022-09-03T08:14:50;3.47;;;1.63;;
48550;SDS011;34397;51.176;6.738;2022-09-03T08:17:27;3.15;;;1.45;;
48550;SDS011;34397;51.176;6.738;2022-09-03T08:20:04;5.30;;;1.90;;
48550;SDS011;34397;51.176;6.738;2022-09-03T08:22:37;6.90;;;2.20;;
48550;SDS011;34397;51.176;6.738;2022-09-03T08:25:10;6.70;;;1.92;;
48550;SDS011;34397;51.176;6.738;2022-09-03T08:27:43;4.45;;;1.88;;
48550;SDS011;34397;51.176;6.738;2022-09-03T08:30:19;6.18;;;2.30;;
48550;SDS011;34397;51.176;6.738;2022-09-03T08:32:54;5.70;;;2.10;;
48550;SDS011;34397;51.176;6.738;2022-09-03T08:35:36;4.28;;;2.20;;
48550;SDS011;34397;51.176;6.738;2022-09-03T08:38:08;3.72;;;2.35;;
48550;SDS011;34397;51.176;6.738;2022-09-03T08:40:46;5.18;;;2.30;;
48550;SDS011;34397;51.176;6.738;2022-09-03T08:43:19;5.32;;;1.77;;
48550;SDS011;34397;51.176;6.738;2022-09-03T08:45:56;4.72;;;1.83;;
48550;SDS011;34397;51.176;6.738;2022-09-03T08:48:36;3.63;;;1.90;;
48550;SDS011;34397;51.176;6.738;2022-09-03T08:51:08;3.90;;;2.08;;
48550;SDS011;34397;51.176;6.738;2022-09-03T08:53:43;6.85;;;2.67;;
48550;SDS011;34397;51.176;6.738;2022-09-03T08:56:29;4.35;;;2.30;;
48550;SDS011;34397;51.176;6.738;2022-09-03T08:59:04;4.80;;;2.60;;
48550;SDS011;34397;51.176;6.738;2022-09-03T09:01:48;4.75;;;2.50;;
48550;SDS011;34397;51.176;6.738;2022-09-03T09:04:35;5.75;;;2.15;;
48550;SDS011;34397;51.176;6.738;2022-09-03T09:07:26;4.10;;;2.17;;
48550;SDS011;34397;51.176;6.738;2022-09-03T09:10:09;3.95;;;2.30;;
48550;SDS011;34397;51.176;6.738;2022-09-03T09:12:57;4.75;;;2.13;;
48550;SDS011;34397;51.176;6.738;2022-09-03T09:15:46;3.97;;;1.77;;
48550;SDS011;34397;51.176;6.738;2022-09-03T09:18:32;4.50;;;1.92;;
48550;SDS011;34397;51.176;6.738;2022-09-03T09:21:19;4.35;;;2.10;;
48550;SDS011;34397;51.176;6.738;2022-09-03T09:23:59;7.47;;;2.47;;
48550;SDS011;34397;51.176;6.738;2022-09-03T09:26:43;4.57;;;2.55;;
48550;SDS011;34397;51.176;6.738;2022-09-03T09:29:18;4.75;;;2.00;;
48550;SDS011;34397;51.176;6.738;2022-09-03T09:31:52;3.88;;;1.95;;
48550;SDS011;34397;51.176;6.738;2022-09-03T09:34:32;3.72;;;1.80;;
48550;SDS011;34397;51.176;6.738;2022-09-03T09:37:07;4.55;;;1.90;;
48550;SDS011;34397;51.176;6.738;2022-09-03T09:39:52;3.97;;;2.05;;
48550;SDS011;34397;51.176;6.738;2022-09-03T09:42:27;3.65;;;2.13;;
48550;SDS011;34397;51.176;6.738;2022-09-03T09:45:07;5.28;;;2.25;;
48550;SDS011;34397;51.176;6.738;2022-09-03T09:47:43;5.43;;;2.22;;
48550;SDS011;34397;51.176;6.738;2022-09-03T09:50:20;4.00;;;1.92;;
48550;SDS011;34397;51.176;6.738;2022-09-03T09:53:01;4.53;;;2.17;;
48550;SDS011;34397;51.176;6.738;2022-09-03T09:55:52;5.18;;;2.60;;
48550;SDS011;34397;51.176;6.738;2022-09-03T09:58:29;4.75;;;2.05;;
48550;SDS011;34397;51.176;6.738;2022-09-03T10:01:04;4.50;;;2.10;;
48550;SDS011;34397;51.176;6.738;2022-09-03T10:03:47;3.95;;;2.28;;
48550;SDS011;34397;51.176;6.738;2022-09-03T10:06:32;4.68;;;2.00;;
48550;SDS011;34397;51.176;6.738;2022-09-03T10:09:27;3.78;;;2.13;;
48550;SDS011;34397;51.176;6.738;2022-09-03T10:12:08;4.00;;;2.10;;
48550;SDS011;34397;51.176;6.738;2022-09-03T10:14:52;5.30;;;2.15;;
48550;SDS011;34397;51.176;6.738;2022-09-03T10:17:35;4.93;;;2.25;;
48550;SDS011;34397;51.176;6.738;2022-09-03T10:20:23;3.67;;;1.85;;
48550;SDS011;34397;51.176;6.738;2022-09-03T10:23:12;4.15;;;2.22;;
48550;SDS011;34397;51.176;6.738;2022-09-03T10:26:07;4.25;;;1.80;;
48550;SDS011;34397;51.176;6.738;2022-09-03T10:28:48;3.83;;;1.90;;
48550;SDS011;34397;51.176;6.738;2022-09-03T10:31:33;4.47;;;2.30;;
48550;SDS011;34397;51.176;6.738;2022-09-03T10:34:25;5.63;;;2.90;;
48550;SDS011;34397;51.176;6.738;2022-09-03T10:37:11;3.67;;;1.60;;
48550;SDS011;34397;51.176;6.738;2022-09-03T10:39:59;2.88;;;1.60;;
48550;SDS011;34397;51.176;6.738;2022-09-03T10:42:47;3.63;;;1.80;;
48550;SDS011;34397;51.176;6.738;2022-09-03T10:45:36;4.65;;;1.98;;
48550;SDS011;34397;51.176;6.738;2022-09-03T10:48:24;4.05;;;2.38;;
48550;SDS011;34397;51.176;6.738;2022-09-03T10:51:25;4.35;;;1.90;;
48550;SDS011;34397;51.176;6.738;2022-09-03T10:54:06;5.15;;;2.20;;
48550;SDS011;34397;51.176;6.738;2022-09-03T10:56:56;5.70;;;2.90;;
48550;SDS011;34397;51.176;6.738;2022-09-03T10:59:47;5.03;;;1.90;;
48550;SDS011;34397;51.176;6.738;2022-09-03T11:02:40;3.78;;;2.05;;
48550;SDS011;34397;51.176;6.738;2022-09-03T11:05:51;3.78;;;1.80;;
48550;SDS011;34397;51.176;6.738;2022-09-03T11:08:38;3.72;;;1.90;;
48550;SDS011;34397;51.176;6.738;2022-09-03T11:11:17;3.97;;;2.25;;
48550;SDS011;34397;51.176;6.738;2022-09-03T11:13:57;3.58;;;1.90;;
48550;SDS011;34397;51.176;6.738;2022-09-03T11:16:47;3.75;;;1.80;;
48550;SDS011;34397;51.176;6.738;2022-09-03T11:19:33;7.87;;;2.20;;
48550;SDS011;34397;51.176;6.738;2022-09-03T11:22:21;3.15;;;2.05;;
48550;SDS011;34397;51.176;6.738;2022-09-03T11:25:00;3.17;;;1.90;;
48550;SDS011;34397;51.176;6.738;2022-09-03T11:27:41;3.10;;;2.10;;
48550;SDS011;34397;51.176;6.738;2022-09-03T11:30:34;3.28;;;1.90;;
48550;SDS011;34397;51.176;6.738;2022-09-03T11:33:19;12.48;;;2.10;;
48550;SDS011;34397;51.176;6.738;2022-09-03T11:35:55;9.85;;;2.97;;
48550;SDS011;34397;51.176;6.738;2022-09-03T11:38:34;3.83;;;1.88;;
48550;SDS011;34397;51.176;6.738;2022-09-03T11:41:13;3.45;;;1.92;;
48550;SDS011;34397;51.176;6.738;2022-09-03T11:44:13;5.22;;;2.03;;
48550;SDS011;34397;51.176;6.738;2022-09-03T11:46:56;3.28;;;1.70;;
48550;SDS011;34397;51.176;6.738;2022-09-03T11:49:31;3.83;;;2.15;;
48550;SDS011;34397;51.176;6.738;2022-09-03T11:52:26;5.55;;;2.00;;
48550;SDS011;34397;51.176;6.738;2022-09-03T11:55:06;3.70;;;1.85;;
48550;SDS011;34397;51.176;6.738;2022-09-03T11:57:45;2.75;;;1.80;;
48550;SDS011;34397;51.176;6.738;2022-09-03T12:00:20;3.33;;;1.77;;
48550;SDS011;34397;51.176;6.738;2022-09-03T12:03:04;3.28;;;2.13;;
48550;SDS011;34397;51.176;6.738;2022-09-03T12:05:43;4.63;;;2.30;;
48550;SDS011;34397;51.176;6.738;2022-09-03T12:08:40;5.10;;;2.33;;
48550;SDS011;34397;51.176;6.738;2022-09-03T12:12:03;4.90;;;2.28;;
48550;SDS011;34397;51.176;6.738;2022-09-03T12:14:53;2.65;;;1.90;;
48550;SDS011;34397;51.176;6.738;2022-09-03T12:17:40;3.83;;;2.22;;
48550;SDS011;34397;51.176;6.738;2022-09-03T12:20:45;5.07;;;2.35;;
48550;SDS011;34397;51.176;6.738;2022-09-03T12:23:43;4.70;;;2.58;;
48550;SDS011;34397;51.176;6.738;2022-09-03T12:26:18;4.13;;;2.40;;
48550;SDS011;34397;51.176;6.738;2022-09-03T12:28:56;3.38;;;2.45;;
48550;SDS011;34397;51.176;6.738;2022-09-03T12:31:43;2.95;;;2.40;;
48550;SDS011;34397;51.176;6.738;2022-09-03T12:34:23;4.28;;;2.80;;
48550;SDS011;34397;51.176;6.738;2022-09-03T12:37:03;5.05;;;2.88;;
48550;SDS011;34397;51.176;6.738;2022-09-03T12:39:56;5.35;;;2.63;;
48550;SDS011;34397;51.176;6.738;2022-09-03T12:42:55;4.72;;;2.70;;
48550;SDS011;34397;51.176;6.738;2022-09-03T12:45:48;5.30;;;3.35;;
48550;SDS011;34397;51.176;6.738;2022-09-03T12:48:21;4.00;;;2.92;;
48550;SDS011;34397;51.176;6.738;2022-09-03T12:51:01;4.05;;;2.42;;
48550;SDS011;34397;51.176;6.738;2022-09-03T12:53:34;4.60;;;2.60;;
48550;SDS011;34397;51.176;6.738;2022-09-03T12:56:09;4.88;;;2.80;;
48550;SDS011;34397;51.176;6.738;2022-09-03T12:58:49;6.13;;;2.65;;
48550;SDS011;34397;51.176;6.738;2022-09-03T13:01:28;3.17;;;2.38;;
48550;SDS011;34397;51.176;6.738;2022-09-03T13:04:08;4.22;;;2.42;;
48550;SDS011;34397;51.176;6.738;2022-09-03T13:06:54;3.90;;;2.50;;
48550;SDS011;34397;51.176;6.738;2022-09-03T13:09:38;3.72;;;2.45;;
48550;SDS011;34397;51.176;6.738;2022-09-03T13:12:20;3.60;;;2.22;;
48550;SDS011;34397;51.176;6.738;2022-09-03T13:15:07;4.43;;;2.72;;
48550;SDS011;34397;51.176;6.738;2022-09-03T13:17:53;3.90;;;2.70;;
48550;SDS011;34397;51.176;6.738;2022-09-03T13:20:53;3.78;;;2.35;;
48550;SDS011;34397;51.176;6.738;2022-09-03T13:23:46;3.35;;;2.30;;
48550;SDS011;34397;51.176;6.738;2022-09-03T13:26:42;5.80;;;2.42;;
48550;SDS011;34397;51.176;6.738;2022-09-03T13:29:32;4.13;;;2.50;;
48550;SDS011;34397;51.176;6.738;2022-09-03T13:32:23;4.75;;;2.50;;
48550;SDS011;34397;51.176;6.738;2022-09-03T13:35:09;4.88;;;2.70;;
48550;SDS011;34397;51.176;6.738;2022-09-03T13:37:48;4.25;;;2.50;;
48550;SDS011;34397;51.176;6.738;2022-09-03T13:40:32;3.88;;;2.30;;
48550;SDS011;34397;51.176;6.738;2022-09-03T13:43:17;3.13;;;2.20;;
48550;SDS011;34397;51.176;6.738;2022-09-03T13:46:01;3.45;;;2.40;;
48550;SDS011;34397;51.176;6.738;2022-09-03T13:48:40;3.60;;;2.42;;
48550;SDS011;34397;51.176;6.738;2022-09-03T13:51:41;3.30;;;1.83;;
48550;SDS011;34397;51.176;6.738;2022-09-03T13:54:25;3.88;;;2.53;;
48550;SDS011;34397;51.176;6.738;2022-09-03T13:57:01;4.90;;;2.35;;
48550;SDS011;34397;51.176;6.738;2022-09-03T13:59:54;3.30;;;2.20;;
48550;SDS011;34397;51.176;6.738;2022-09-03T14:02:39;3.08;;;2.20;;
48550;SDS011;34397;51.176;6.738;2022-09-03T14:05:59;3.55;;;2.20;;
48550;SDS011;34397;51.176;6.738;2022-09-03T14:08:58;3.30;;;2.30;;
48550;SDS011;34397;51.176;6.738;2022-09-03T14:11:47;3.28;;;2.00;;
48550;SDS011;34397;51.176;6.738;2022-09-03T14:14:30;2.95;;;1.88;;
48550;SDS011;34397;51.176;6.738;2022-09-03T14:17:18;3.92;;;2.35;;
48550;SDS011;34397;51.176;6.738;2022-09-03T14:20:03;3.25;;;2.05;;
48550;SDS011;34397;51.176;6.738;2022-09-03T14:22:47;3.50;;;1.98;;
48550;SDS011;34397;51.176;6.738;2022-09-03T14:25:32;3.08;;;2.05;;
48550;SDS011;34397;51.176;6.738;2022-09-03T14:28:12;3.88;;;2.13;;
48550;SDS011;34397;51.176;6.738;2022-09-03T14:30:50;4.97;;;2.33;;
48550;SDS011;34397;51.176;6.738;2022-09-03T14:33:38;3.10;;;1.90;;
48550;SDS011;34397;51.176;6.738;2022-09-03T14:36:32;4.72;;;2.17;;
48550;SDS011;34397;51.176;6.738;2022-09-03T14:39:21;3.58;;;2.15;;
48550;SDS011;34397;51.176;6.738;2022-09-03T14:45:51;2.65;;;2.00;;
48550;SDS011;34397;51.176;6.738;2022-09-03T14:48:51;4.22;;;2.00;;
48550;SDS011;34397;51.176;6.738;2022-09-03T14:51:54;3.80;;;1.92;;
48550;SDS011;34397;51.176;6.738;2022-09-03T14:55:01;3.85;;;2.25;;
48550;SDS011;34397;51.176;6.738;2022-09-03T14:58:03;5.53;;;2.00;;
48550;SDS011;34397;51.176;6.738;2022-09-03T15:00:59;3.28;;;2.10;;
48550;SDS011;34397;51.176;6.738;2022-09-03T15:10:11;3.08;;;2.05;;
48550;SDS011;34397;51.176;6.738;2022-09-03T15:12:58;4.82;;;2.28;;
48550;SDS011;34397;51.176;6.738;2022-09-03T15:15:47;3.85;;;2.00;;
48550;SDS011;34397;51.176;6.738;2022-09-03T15:18:49;2.97;;;1.90;;
48550;SDS011;34397;51.176;6.738;2022-09-03T15:21:59;3.47;;;2.15;;
48550;SDS011;34397;51.176;6.738;2022-09-03T15:24:49;4.07;;;2.30;;
48550;SDS011;34397;51.176;6.738;2022-09-03T15:27:35;5.45;;;2.67;;
48550;SDS011;34397;51.176;6.738;2022-09-03T15:30:34;3.40;;;2.30;;
48550;SDS011;34397;51.176;6.738;2022-09-03T15:33:17;5.53;;;2.40;;
48550;SDS011;34397;51.176;6.738;2022-09-03T15:36:18;3.60;;;2.00;;
48550;SDS011;34397;51.176;6.738;2022-09-03T15:38:55;3.80;;;2.40;;
48550;SDS011;34397;51.176;6.738;2022-09-03T15:41:50;3.40;;;2.13;;
48550;SDS011;34397;51.176;6.738;2022-09-03T15:44:39;3.47;;;2.20;;
48550;SDS011;34397;51.176;6.738;2022-09-03T15:47:30;4.97;;;2.55;;
48550;SDS011;34397;51.176;6.738;2022-09-03T15:50:15;3.45;;;2.25;;
48550;SDS011;34397;51.176;6.738;2022-09-03T15:53:00;4.65;;;2.28;;
48550;SDS011;34397;51.176;6.738;2022-09-03T15:55:46;5.10;;;2.60;;
48550;SDS011;34397;51.176;6.738;2022-09-03T15:58:22;4.28;;;2.40;;
48550;SDS011;34397;51.176;6.738;2022-09-03T16:01:05;4.10;;;2.83;;
48550;SDS011;34397;51.176;6.738;2022-09-03T16:04:09;4.13;;;2.40;;
48550;SDS011;34397;51.176;6.738;2022-09-03T16:07:02;4.28;;;2.78;;
48550;SDS011;34397;51.176;6.738;2022-09-03T16:10:01;4.15;;;2.60;;
48550;SDS011;34397;51.176;6.738;2022-09-03T16:12:56;4.35;;;2.90;;
48550;SDS011;34397;51.176;6.738;2022-09-03T16:15:40;4.57;;;2.75;;
48550;SDS011;34397;51.176;6.738;2022-09-03T16:18:21;3.80;;;2.78;;
48550;SDS011;34397;51.176;6.738;2022-09-03T16:21:20;4.13;;;2.50;;
48550;SDS011;34397;51.176;6.738;2022-09-03T16:24:01;3.63;;;2.38;;
48550;SDS011;34397;51.176;6.738;2022-09-03T16:26:52;4.75;;;3.22;;
48550;SDS011;34397;51.176;6.738;2022-09-03T16:29:29;6.13;;;4.22;;